Terminal Aerodrome Forecast
Issued by NWS

Home | Current Version | Previous Version | Text Only | Print | Product List | Glossary On
Versions: 1 2 3 4 5 6 7 8 9 10 11 12 13 14 15 16
000
FTUS41 KAKQ 201700
TAFPHF
TAF
KPHF 201739Z 2018/2118 09006KT P6SM SCT040
     FM210000 16004KT P6SM SCT050 SCT100
     FM210800 21003KT 3SM BR BKN010
     FM211500 24005KT P6SM SCT025=

USA.gov is the U.S. government's official web portal to all federal, state and local government web resources and services.